createdAt,value
2024-02-06T00:06:01.153Z,10.18
2024-02-06T00:16:12.264Z,10.00
2024-02-06T00:26:14.083Z,9.70
2024-02-06T00:36:26.192Z,9.76
2024-02-06T00:46:30.698Z,10.15
2024-02-06T00:56:34.066Z,10.46
2024-02-06T01:06:36.545Z,10.64
2024-02-06T01:16:38.637Z,10.66
2024-02-06T01:26:41.713Z,10.54
2024-02-06T01:36:53.675Z,10.41
2024-02-06T01:46:58.334Z,10.20
2024-02-06T01:57:02.933Z,9.82
2024-02-06T02:07:08.028Z,9.70
2024-02-06T02:17:09.972Z,9.66
2024-02-06T02:27:15.416Z,9.56
2024-02-06T02:37:18.342Z,9.06
2024-02-06T02:47:20.672Z,8.31
2024-02-06T02:57:23.689Z,7.85
2024-02-06T03:07:25.658Z,7.76
2024-02-06T03:17:33.415Z,7.39
2024-02-06T03:27:40.389Z,7.08
2024-02-06T03:37:42.492Z,7.04
2024-02-06T03:47:44.828Z,7.57
2024-02-06T03:57:50.054Z,8.11
2024-02-06T04:07:52.386Z,8.86
2024-02-06T04:18:01.425Z,8.48
2024-02-06T04:28:03.482Z,7.25
2024-02-06T04:38:09.352Z,6.22
2024-02-06T04:48:11.209Z,5.77
2024-02-06T04:58:13.556Z,5.52
2024-02-06T05:08:15.428Z,5.28
2024-02-06T05:18:18.435Z,5.20
2024-02-06T05:28:21.912Z,5.00
2024-02-06T05:38:24.357Z,5.10
2024-02-06T05:48:29.044Z,5.22
2024-02-06T05:58:32.815Z,5.13
2024-02-06T06:08:38.513Z,5.26
2024-02-06T06:18:41.548Z,5.55
2024-02-06T06:28:43.719Z,5.70
2024-02-06T06:38:45.629Z,5.90
2024-02-06T06:48:48.640Z,6.35
2024-02-06T06:58:51.474Z,6.61
2024-02-06T07:08:55.994Z,6.87
2024-02-06T07:18:58.983Z,7.00
2024-02-06T07:29:01.262Z,7.26
2024-02-06T07:39:05.134Z,7.49
2024-02-06T07:49:07.129Z,8.25
2024-02-06T07:59:12.893Z,8.48
2024-02-06T08:09:15.060Z,10.02
2024-02-06T08:19:19.544Z,11.38
2024-02-06T08:29:41.156Z,11.96
2024-02-06T08:39:43.128Z,12.09
2024-02-06T08:49:45.118Z,14.82
2024-02-06T08:59:52.179Z,14.48
2024-02-06T09:09:58.006Z,15.35
2024-02-06T09:20:00.291Z,15.51
2024-02-06T09:30:13.333Z,16.14
2024-02-06T09:40:21.586Z,17.82
2024-02-06T09:50:23.621Z,17.40
2024-02-06T10:00:27.746Z,21.43
2024-02-06T10:10:31.827Z,23.26
2024-02-06T10:20:48.719Z,22.73
2024-02-06T10:30:54.089Z,25.26
2024-02-06T10:41:06.023Z,25.67
2024-02-06T10:51:28.427Z,23.94
2024-02-06T11:01:43.787Z,26.50
2024-02-06T11:11:46.839Z,27.90
2024-02-06T11:21:57.492Z,29.10
2024-02-06T11:32:03.041Z,26.10
2024-02-06T11:42:04.983Z,26.95
2024-02-06T11:52:09.325Z,27.91
2024-02-06T12:02:12.888Z,26.40
2024-02-06T12:12:23.545Z,25.99
2024-02-06T12:22:25.397Z,23.53
2024-02-06T12:32:27.581Z,24.05
2024-02-06T12:42:29.465Z,23.67
2024-02-06T12:52:31.301Z,26.26
2024-02-06T13:02:35.516Z,26.18
2024-02-06T13:12:47.900Z,26.57
2024-02-06T13:22:52.371Z,26.29
2024-02-06T13:32:54.273Z,28.28
2024-02-06T13:42:56.164Z,23.48
2024-02-06T13:53:02.455Z,23.89
2024-02-06T14:03:11.728Z,25.33
2024-02-06T14:13:19.076Z,24.54
2024-02-06T14:23:24.977Z,21.55
2024-02-06T14:33:29.120Z,21.37
2024-02-06T14:43:32.590Z,20.43
2024-02-06T14:53:36.908Z,19.79
2024-02-06T15:03:41.252Z,17.86
2024-02-06T15:13:43.418Z,16.57
2024-02-06T15:23:47.023Z,16.15
2024-02-06T15:33:54.093Z,15.67
2024-02-06T15:43:57.172Z,15.33
2024-02-06T15:54:00.718Z,14.96
2024-02-06T16:04:04.862Z,14.72
2024-02-06T16:14:07.832Z,14.30
2024-02-06T16:24:12.087Z,14.04
2024-02-06T16:34:15.006Z,13.84
2024-02-06T16:44:24.803Z,13.58
2024-02-06T16:54:29.544Z,13.42
2024-02-06T17:04:31.499Z,13.24
2024-02-06T17:14:35.248Z,13.07
2024-02-06T17:24:37.756Z,12.91
2024-02-06T17:34:41.496Z,12.75
2024-02-06T17:44:50.054Z,12.55
2024-02-06T17:54:51.954Z,12.47
2024-02-06T18:04:56.229Z,12.38
2024-02-06T18:14:58.425Z,12.18
2024-02-06T18:25:01.897Z,12.02
2024-02-06T18:35:04.139Z,11.89
2024-02-06T18:45:06.613Z,11.72
2024-02-06T18:55:13.842Z,11.57
2024-02-06T19:05:16.041Z,11.52
2024-02-06T19:15:18.405Z,11.50
2024-02-06T19:25:21.607Z,11.39
2024-02-06T19:35:23.691Z,11.34
2024-02-06T19:45:25.502Z,11.17
2024-02-06T19:55:28.068Z,11.12
2024-02-06T20:05:29.962Z,10.95
2024-02-06T20:15:34.463Z,10.78
2024-02-06T20:25:36.403Z,10.65
2024-02-06T20:35:38.532Z,10.49
2024-02-06T20:45:42.724Z,10.30
2024-02-06T20:55:44.599Z,10.12
2024-02-06T21:05:47.327Z,10.07
2024-02-06T21:15:49.342Z,9.92
2024-02-06T21:25:51.807Z,9.80
2024-02-06T21:35:53.642Z,9.60
2024-02-06T21:45:56.071Z,9.44
2024-02-06T21:56:08.261Z,9.35
2024-02-06T22:06:17.443Z,9.39
2024-02-06T22:16:21.674Z,9.46
2024-02-06T22:26:25.208Z,9.57
2024-02-06T22:36:28.630Z,9.65
2024-02-06T22:46:30.531Z,9.79
2024-02-06T22:56:32.353Z,9.83
2024-02-06T23:06:36.052Z,9.67
2024-02-06T23:16:38.356Z,9.73
2024-02-06T23:26:40.230Z,9.66
2024-02-06T23:36:42.052Z,9.77
2024-02-06T23:46:43.890Z,9.93
2024-02-06T23:56:45.786Z,9.92
